createdAt,value
2019-05-28T00:06:55.858Z,1002.5
2019-05-28T00:17:43.854Z,1002.3
2019-05-28T00:28:32.921Z,1002.3
2019-05-28T00:38:49.580Z,1002.2
2019-05-28T01:16:57.548Z,1001.9
2019-05-28T01:27:44.249Z,1001.9
2019-05-28T01:39:04.921Z,1001.9
2019-05-28T01:49:19.386Z,1001.8
2019-05-28T01:59:35.804Z,1001.9
2019-05-28T02:10:28.372Z,1001.9
2019-05-28T02:21:19.212Z,1001.8
2019-05-28T02:33:14.107Z,1001.8
2019-05-28T02:43:29.829Z,1001.7
2019-05-28T02:53:44.353Z,1001.8
2019-05-28T03:19:48.660Z,1001.8
2019-05-28T03:30:38.951Z,1001.8
2019-05-28T03:41:26.614Z,1001.7
2019-05-28T03:52:16.393Z,1001.8
2019-05-28T04:02:31.752Z,1001.9
2019-05-28T04:13:19.203Z,1001.9
2019-05-28T04:24:09.184Z,1002.0
2019-05-28T04:34:25.532Z,1002.1
2019-05-28T04:44:46.717Z,1002.1
2019-05-28T04:55:35.397Z,1002.2
2019-05-28T05:06:24.622Z,1002.2
2019-05-28T05:17:16.317Z,1002.3
2019-05-28T05:27:31.862Z,1002.4
2019-05-28T05:37:48.903Z,1002.3
2019-05-28T05:48:36.475Z,1002.3
2019-05-28T05:59:25.303Z,1002.4
2019-05-28T06:09:41.162Z,1002.4
2019-05-28T06:20:27.191Z,1002.3
2019-05-28T06:31:12.543Z,1002.3
2019-05-28T06:41:26.868Z,1002.4
2019-05-28T06:52:14.493Z,1002.5
2019-05-28T07:03:00.393Z,1002.6
2019-05-28T07:13:49.946Z,1002.7
2019-05-28T07:24:05.077Z,1002.6
2019-05-28T07:34:29.644Z,1002.7
2019-05-28T07:44:36.722Z,1002.7
2019-05-28T07:55:25.120Z,1002.8
2019-05-28T08:06:17.582Z,1002.6
2019-05-28T08:17:03.209Z,1002.7
2019-05-28T08:27:19.111Z,1002.8
2019-05-28T08:37:33.316Z,1002.9
2019-05-28T08:47:44.758Z,1003.0
2019-05-28T08:58:33.775Z,1003.2
2019-05-28T09:09:20.648Z,1003.3
2019-05-28T09:20:08.439Z,1003.5
2019-05-28T09:30:27.523Z,1003.6
2019-05-28T09:41:15.539Z,1003.6
2019-05-28T09:51:31.530Z,1003.5
2019-05-28T10:02:18.769Z,1003.4
2019-05-28T10:13:13.887Z,1003.5
2019-05-28T10:24:02.036Z,1003.6
2019-05-28T10:34:18.018Z,1003.7
2019-05-28T10:45:06.789Z,1003.8
2019-05-28T10:55:20.329Z,1003.9
2019-05-28T11:05:36.366Z,1004.0
2019-05-28T11:15:52.780Z,1004.0
2019-05-28T11:26:42.921Z,1004.1
2019-05-28T11:37:08.936Z,1004.2
2019-05-28T11:47:16.503Z,1004.2
2019-05-28T11:58:04.610Z,1004.3
2019-05-28T12:08:53.000Z,1004.3
2019-05-28T12:19:43.281Z,1004.3
2019-05-28T12:29:58.563Z,1004.4
2019-05-28T12:40:47.719Z,1004.6
2019-05-28T12:51:03.368Z,1004.8
2019-05-28T13:01:51.633Z,1004.9
2019-05-28T13:12:42.626Z,1004.9
2019-05-28T13:22:59.428Z,1005.3
2019-05-28T13:33:15.304Z,1005.2
2019-05-28T13:44:02.228Z,1005.2
2019-05-28T13:54:18.239Z,1005.2
2019-05-28T14:04:33.977Z,1005.2
2019-05-28T14:14:52.941Z,1005.2
2019-05-28T14:25:06.647Z,1005.3
2019-05-28T14:35:51.919Z,1005.4
2019-05-28T14:46:12.481Z,1005.6
2019-05-28T14:57:00.416Z,1005.8
2019-05-28T15:07:54.071Z,1005.9
2019-05-28T15:18:40.557Z,1006.0
2019-05-28T15:29:27.363Z,1006.2
2019-05-28T15:39:44.089Z,1006.3
2019-05-28T15:50:47.682Z,1006.5
2019-05-28T16:01:03.424Z,1006.6
2019-05-28T16:12:56.898Z,1006.7
2019-05-28T16:23:13.275Z,1006.7
2019-05-28T16:34:04.891Z,1006.9
2019-05-28T16:45:56.763Z,1007.1
2019-05-28T16:56:28.162Z,1007.2
2019-05-28T17:07:33.955Z,1007.4
2019-05-28T17:17:50.086Z,1007.5
2019-05-28T17:28:11.052Z,1007.7
2019-05-28T17:38:24.313Z,1007.8
2019-05-28T17:50:16.355Z,1007.9
2019-05-28T18:00:49.946Z,1008.2
2019-05-28T18:11:37.335Z,1008.4
2019-05-28T18:22:29.916Z,1008.6
2019-05-28T18:36:19.581Z,1008.8
2019-05-28T18:47:12.515Z,1009.0
2019-05-28T18:58:07.409Z,1009.2
2019-05-28T19:08:54.829Z,1009.5
2019-05-28T19:19:42.339Z,1009.6
2019-05-28T19:30:28.968Z,1009.7
2019-05-28T19:43:31.749Z,1010.0
2019-05-28T19:54:20.341Z,1010.3
2019-05-28T20:05:09.279Z,1010.5
2019-05-28T20:15:56.966Z,1010.6
2019-05-28T20:27:11.088Z,1010.9
2019-05-28T20:37:59.524Z,1011.0
2019-05-28T20:49:08.884Z,1011.1
2019-05-28T20:59:20.583Z,1011.3
2019-05-28T21:10:10.402Z,1011.4
2019-05-28T21:20:27.745Z,1011.5
2019-05-28T21:31:15.112Z,1011.7
2019-05-28T21:42:03.289Z,1011.8
2019-05-28T21:52:50.825Z,1011.9
2019-05-28T22:03:02.692Z,1012.0
2019-05-28T22:13:56.024Z,1012.1
2019-05-28T22:24:08.685Z,1012.2
2019-05-28T22:34:23.644Z,1012.3
2019-05-28T22:44:39.650Z,1012.4
2019-05-28T22:54:54.895Z,1012.6
2019-05-28T23:05:09.292Z,1012.6
2019-05-28T23:15:25.233Z,1012.7
2019-05-28T23:25:39.277Z,1012.9
2019-05-28T23:36:28.304Z,1012.9
2019-05-28T23:46:43.582Z,1013.0
2019-05-28T23:57:29.108Z,1013.2
